sensor_id;sensor_type;location;lat;lon;timestamp;pressure;altitude;pressure_sealevel;temperature;humidity
5877;BME280;2964;42.144;24.730;2023-11-22T00:00:58;143803.84;;;8.89;97.66
5877;BME280;2964;42.144;24.730;2023-11-22T00:03:25;143785.03;;;8.82;98.33
5877;BME280;2964;42.144;24.730;2023-11-22T00:05:52;143757.47;;;8.71;98.76
5877;BME280;2964;42.144;24.730;2023-11-22T00:08:18;143728.59;;;8.59;98.84
5877;BME280;2964;42.144;24.730;2023-11-22T00:10:45;143732.34;;;8.60;99.43
5877;BME280;2964;42.144;24.730;2023-11-22T00:13:13;143714.78;;;8.53;99.57
5877;BME280;2964;42.144;24.730;2023-11-22T00:15:40;143713.56;;;8.53;100.00
5877;BME280;2964;42.144;24.730;2023-11-22T00:18:07;143697.22;;;8.46;100.00
5877;BME280;2964;42.144;24.730;2023-11-22T00:20:34;143731.13;;;8.60;99.47
5877;BME280;2964;42.144;24.730;2023-11-22T00:23:00;143697.22;;;8.46;99.19
5877;BME280;2964;42.144;24.730;2023-11-22T00:25:28;143714.78;;;8.53;99.15
5877;BME280;2964;42.144;24.730;2023-11-22T00:27:55;143713.56;;;8.53;98.72
5877;BME280;2964;42.144;24.730;2023-11-22T00:30:23;143699.75;;;8.47;99.25
5877;BME280;2964;42.144;24.730;2023-11-22T00:32:50;143699.75;;;8.47;99.77
5877;BME280;2964;42.144;24.730;2023-11-22T00:35:17;143739.91;;;8.63;99.06
5877;BME280;2964;42.144;24.730;2023-11-22T00:37:43;143748.66;;;8.67;98.75
5877;BME280;2964;42.144;24.730;2023-11-22T00:40:12;143801.31;;;8.88;97.41
5877;BME280;2964;42.144;24.730;2023-11-22T00:42:39;143777.50;;;8.79;96.94
5877;BME280;2964;42.144;24.730;2023-11-22T00:45:08;143780.03;;;8.80;97.31
5877;BME280;2964;42.144;24.730;2023-11-22T00:47:36;143782.50;;;8.81;97.21
5877;BME280;2964;42.144;24.730;2023-11-22T00:50:05;143761.19;;;8.72;97.61
5877;BME280;2964;42.144;24.730;2023-11-22T00:52:33;143748.66;;;8.67;98.26
5877;BME280;2964;42.144;24.730;2023-11-22T00:55:00;143727.34;;;8.58;99.32
5877;BME280;2964;42.144;24.730;2023-11-22T00:57:26;143736.13;;;8.62;99.10
5877;BME280;2964;42.144;24.730;2023-11-22T00:59:55;143737.38;;;8.62;99.52
5877;BME280;2964;42.144;24.730;2023-11-22T01:02:22;143683.41;;;8.40;99.53
5877;BME280;2964;42.144;24.730;2023-11-22T01:04:50;143719.81;;;8.55;99.37
5877;BME280;2964;42.144;24.730;2023-11-22T01:07:16;143722.34;;;8.56;99.57
5877;BME280;2964;42.144;24.730;2023-11-22T01:09:43;143714.78;;;8.53;100.00
5877;BME280;2964;42.144;24.730;2023-11-22T01:12:10;143734.88;;;8.61;100.00
5877;BME280;2964;42.144;24.730;2023-11-22T01:14:37;143787.53;;;8.83;99.54
5877;BME280;2964;42.144;24.730;2023-11-22T01:17:04;143817.66;;;8.95;96.61
5877;BME280;2964;42.144;24.730;2023-11-22T01:19:31;143787.53;;;8.83;96.23
5877;BME280;2964;42.144;24.730;2023-11-22T01:21:59;143807.63;;;8.91;96.33
5877;BME280;2964;42.144;24.730;2023-11-22T01:24:26;143842.72;;;9.05;96.18
5877;BME280;2964;42.144;24.730;2023-11-22T01:26:53;143785.03;;;8.82;97.36
5877;BME280;2964;42.144;24.730;2023-11-22T01:29:20;143827.66;;;8.99;97.26
5877;BME280;2964;42.144;24.730;2023-11-22T01:31:47;143837.69;;;9.03;95.69
5877;BME280;2964;42.144;24.730;2023-11-22T01:34:14;143840.22;;;9.04;95.84
5877;BME280;2964;42.144;24.730;2023-11-22T01:36:42;143777.50;;;8.79;97.19
5877;BME280;2964;42.144;24.730;2023-11-22T01:39:12;143754.94;;;8.69;97.88
5877;BME280;2964;42.144;24.730;2023-11-22T01:41:40;143759.94;;;8.72;98.99
5877;BME280;2964;42.144;24.730;2023-11-22T01:44:07;143741.13;;;8.64;98.88
5877;BME280;2964;42.144;24.730;2023-11-22T01:46:34;143820.13;;;8.96;96.79
5877;BME280;2964;42.144;24.730;2023-11-22T01:49:01;143872.84;;;9.18;94.24
5877;BME280;2964;42.144;24.730;2023-11-22T01:51:27;143847.78;;;9.07;94.91
5877;BME280;2964;42.144;24.730;2023-11-22T01:53:56;143871.59;;;9.17;94.28
5877;BME280;2964;42.144;24.730;2023-11-22T01:56:26;143810.09;;;8.92;94.88
5877;BME280;2964;42.144;24.730;2023-11-22T01:58:54;143859.03;;;9.12;93.74
5877;BME280;2964;42.144;24.730;2023-11-22T02:01:21;143832.69;;;9.01;93.77
5877;BME280;2964;42.144;24.730;2023-11-22T02:03:48;143744.91;;;8.65;94.66
5877;BME280;2964;42.144;24.730;2023-11-22T02:06:17;143802.59;;;8.89;94.96
5877;BME280;2964;42.144;24.730;2023-11-22T02:08:44;143805.09;;;8.90;95.04
5877;BME280;2964;42.144;24.730;2023-11-22T02:11:11;143782.50;;;8.81;95.87
5877;BME280;2964;42.144;24.730;2023-11-22T02:13:39;143852.78;;;9.10;94.64
5877;BME280;2964;42.144;24.730;2023-11-22T02:16:05;143867.81;;;9.16;93.84
5877;BME280;2964;42.144;24.730;2023-11-22T02:18:32;143870.34;;;9.17;93.68
5877;BME280;2964;42.144;24.730;2023-11-22T02:21:00;143749.91;;;8.67;95.54
5877;BME280;2964;42.144;24.730;2023-11-22T02:23:28;143813.88;;;8.94;95.21
5877;BME280;2964;42.144;24.730;2023-11-22T02:25:55;143766.19;;;8.74;95.54
5877;BME280;2964;42.144;24.730;2023-11-22T02:28:22;143702.25;;;8.48;97.01
5877;BME280;2964;42.144;24.730;2023-11-22T02:30:49;143762.47;;;8.73;96.65
5877;BME280;2964;42.144;24.730;2023-11-22T02:33:15;143764.94;;;8.74;95.97
5877;BME280;2964;42.144;24.730;2023-11-22T02:35:42;143682.16;;;8.40;97.25
5877;BME280;2964;42.144;24.730;2023-11-22T02:38:09;143712.31;;;8.52;97.51
5877;BME280;2964;42.144;24.730;2023-11-22T02:40:37;143753.69;;;8.69;97.25
5877;BME280;2964;42.144;24.730;2023-11-22T02:43:03;143709.78;;;8.51;98.46
5877;BME280;2964;42.144;24.730;2023-11-22T02:45:34;143701.00;;;8.47;99.17
5877;BME280;2964;42.144;24.730;2023-11-22T02:48:01;143682.16;;;8.40;99.05
5877;BME280;2964;42.144;24.730;2023-11-22T02:50:29;143696.00;;;8.45;99.60
5877;BME280;2964;42.144;24.730;2023-11-22T02:52:57;143680.91;;;8.39;99.95
5877;BME280;2964;42.144;24.730;2023-11-22T02:55:24;143669.59;;;8.35;100.00
5877;BME280;2964;42.144;24.730;2023-11-22T02:57:52;143712.31;;;8.52;99.27
5877;BME280;2964;42.144;24.730;2023-11-22T03:00:18;143733.59;;;8.61;98.66
5877;BME280;2964;42.144;24.730;2023-11-22T03:02:45;143692.22;;;8.44;99.71
5877;BME280;2964;42.144;24.730;2023-11-22T03:05:12;143682.16;;;8.40;100.00
5877;BME280;2964;42.144;24.730;2023-11-22T03:07:39;143669.59;;;8.35;100.00
5877;BME280;2964;42.144;24.730;2023-11-22T03:10:07;143621.94;;;8.15;100.00
5877;BME280;2964;42.144;24.730;2023-11-22T03:12:34;143682.16;;;8.40;100.00
5877;BME280;2964;42.144;24.730;2023-11-22T03:15:03;143684.63;;;8.41;100.00
5877;BME280;2964;42.144;24.730;2023-11-22T03:17:31;143662.06;;;8.31;100.00
5877;BME280;2964;42.144;24.730;2023-11-22T03:19:58;143627.00;;;8.17;100.00
5877;BME280;2964;42.144;24.730;2023-11-22T03:22:26;143652.06;;;8.27;100.00
5877;BME280;2964;42.144;24.730;2023-11-22T03:24:55;143650.81;;;8.27;100.00
5877;BME280;2964;42.144;24.730;2023-11-22T03:27:22;143643.28;;;8.24;100.00
5877;BME280;2964;42.144;24.730;2023-11-22T03:29:48;143693.47;;;8.44;100.00
5877;BME280;2964;42.144;24.730;2023-11-22T03:32:16;143669.59;;;8.35;100.00
5877;BME280;2964;42.144;24.730;2023-11-22T03:34:43;143662.06;;;8.31;100.00
5877;BME280;2964;42.144;24.730;2023-11-22T03:37:10;143663.34;;;8.32;100.00
5877;BME280;2964;42.144;24.730;2023-11-22T03:39:37;143680.91;;;8.39;100.00
5877;BME280;2964;42.144;24.730;2023-11-22T03:42:04;143682.16;;;8.40;100.00
5877;BME280;2964;42.144;24.730;2023-11-22T03:44:31;143673.38;;;8.36;100.00
5877;BME280;2964;42.144;24.730;2023-11-22T03:46:58;143670.84;;;8.35;100.00
5877;BME280;2964;42.144;24.730;2023-11-22T03:49:26;143682.16;;;8.40;100.00
5877;BME280;2964;42.144;24.730;2023-11-22T03:51:53;143670.84;;;8.35;100.00
5877;BME280;2964;42.144;24.730;2023-11-22T03:54:21;143683.41;;;8.40;100.00
5877;BME280;2964;42.144;24.730;2023-11-22T03:56:47;143657.06;;;8.29;100.00
5877;BME280;2964;42.144;24.730;2023-11-22T03:59:14;143647.03;;;8.25;100.00
5877;BME280;2964;42.144;24.730;2023-11-22T04:01:41;143649.56;;;8.26;100.00
5877;BME280;2964;42.144;24.730;2023-11-22T04:04:08;143659.59;;;8.30;100.00
5877;BME280;2964;42.144;24.730;2023-11-22T04:06:36;143649.56;;;8.26;100.00
5877;BME280;2964;42.144;24.730;2023-11-22T04:09:03;143650.81;;;8.27;100.00
5877;BME280;2964;42.144;24.730;2023-11-22T04:11:30;143679.63;;;8.39;100.00
5877;BME280;2964;42.144;24.730;2023-11-22T04:13:57;143674.63;;;8.37;100.00
5877;BME280;2964;42.144;24.730;2023-11-22T04:16:24;143665.84;;;8.33;100.00
5877;BME280;2964;42.144;24.730;2023-11-22T04:18:51;143674.63;;;8.37;100.00
5877;BME280;2964;42.144;24.730;2023-11-22T04:21:17;143674.63;;;8.37;100.00
5877;BME280;2964;42.144;24.730;2023-11-22T04:23:45;143709.78;;;8.51;100.00
5877;BME280;2964;42.144;24.730;2023-11-22T04:26:14;143774.97;;;8.78;99.23
5877;BME280;2964;42.144;24.730;2023-11-22T04:28:41;143774.97;;;8.78;98.47
5877;BME280;2964;42.144;24.730;2023-11-22T04:31:08;143780.03;;;8.80;98.75
5877;BME280;2964;42.144;24.730;2023-11-22T04:33:35;143753.69;;;8.69;100.00
5877;BME280;2964;42.144;24.730;2023-11-22T04:36:03;143732.34;;;8.60;100.00
5877;BME280;2964;42.144;24.730;2023-11-22T04:38:29;143717.31;;;8.54;99.28
5877;BME280;2964;42.144;24.730;2023-11-22T04:40:57;143744.91;;;8.65;98.55
5877;BME280;2964;42.144;24.730;2023-11-22T04:43:24;143704.78;;;8.49;98.51
5877;BME280;2964;42.144;24.730;2023-11-22T04:45:51;143669.59;;;8.35;98.87
5877;BME280;2964;42.144;24.730;2023-11-22T04:48:18;143743.63;;;8.65;99.05
5877;BME280;2964;42.144;24.730;2023-11-22T04:50:44;143756.16;;;8.70;99.22
5877;BME280;2964;42.144;24.730;2023-11-22T04:53:12;143767.47;;;8.75;98.42
5877;BME280;2964;42.144;24.730;2023-11-22T04:55:39;143754.94;;;8.69;99.33
5877;BME280;2964;42.144;24.730;2023-11-22T04:58:07;143742.38;;;8.64;98.23
5877;BME280;2964;42.144;24.730;2023-11-22T05:00:33;143800.06;;;8.88;96.88
5877;BME280;2964;42.144;24.730;2023-11-22T05:03:00;143844.00;;;9.06;96.04
5877;BME280;2964;42.144;24.730;2023-11-22T05:05:27;143851.50;;;9.09;95.31
5877;BME280;2964;42.144;24.730;2023-11-22T05:07:54;143792.53;;;8.85;96.01
5877;BME280;2964;42.144;24.730;2023-11-22T05:10:20;143785.03;;;8.82;96.70
5877;BME280;2964;42.144;24.730;2023-11-22T05:12:47;143744.91;;;8.65;97.03
5877;BME280;2964;42.144;24.730;2023-11-22T05:15:15;143737.38;;;8.62;97.19
5877;BME280;2964;42.144;24.730;2023-11-22T05:17:42;143737.38;;;8.62;98.07
5877;BME280;2964;42.144;24.730;2023-11-22T05:20:09;143772.50;;;8.77;98.09
5877;BME280;2964;42.144;24.730;2023-11-22T05:22:36;143761.19;;;8.72;97.23
5877;BME280;2964;42.144;24.730;2023-11-22T05:25:03;143738.59;;;8.63;98.16
5877;BME280;2964;42.144;24.730;2023-11-22T05:27:29;143734.88;;;8.61;98.39
5877;BME280;2964;42.144;24.730;2023-11-22T05:29:58;143749.91;;;8.67;98.39
5877;BME280;2964;42.144;24.730;2023-11-22T05:32:27;143749.91;;;8.67;98.54
5877;BME280;2964;42.144;24.730;2023-11-22T05:34:54;143696.00;;;8.45;98.77
5877;BME280;2964;42.144;24.730;2023-11-22T05:37:20;143727.34;;;8.58;99.81
5877;BME280;2964;42.144;24.730;2023-11-22T05:39:47;143719.81;;;8.55;99.18
5877;BME280;2964;42.144;24.730;2023-11-22T05:42:14;143744.91;;;8.65;99.16
5877;BME280;2964;42.144;24.730;2023-11-22T05:44:40;143766.19;;;8.74;98.27
5877;BME280;2964;42.144;24.730;2023-11-22T05:47:07;143744.91;;;8.65;98.34
5877;BME280;2964;42.144;24.730;2023-11-22T05:49:35;143749.91;;;8.67;98.67
5877;BME280;2964;42.144;24.730;2023-11-22T05:52:02;143748.66;;;8.67;99.09
5877;BME280;2964;42.144;24.730;2023-11-22T05:54:30;143802.59;;;8.89;97.98
5877;BME280;2964;42.144;24.730;2023-11-22T05:56:57;143741.13;;;8.64;98.32
5877;BME280;2964;42.144;24.730;2023-11-22T05:59:24;143772.50;;;8.77;98.36
5877;BME280;2964;42.144;24.730;2023-11-22T06:01:50;143795.06;;;8.86;97.85
5877;BME280;2964;42.144;24.730;2023-11-22T06:04:17;143820.13;;;8.96;97.13
5877;BME280;2964;42.144;24.730;2023-11-22T06:06:45;143798.84;;;8.87;97.01
5877;BME280;2964;42.144;24.730;2023-11-22T06:09:13;143833.97;;;9.02;97.31
5877;BME280;2964;42.144;24.730;2023-11-22T06:11:40;143840.22;;;9.04;96.64
5877;BME280;2964;42.144;24.730;2023-11-22T06:14:07;143821.41;;;8.97;97.08
5877;BME280;2964;42.144;24.730;2023-11-22T06:16:34;143792.53;;;8.85;97.92
5877;BME280;2964;42.144;24.730;2023-11-22T06:19:00;143857.78;;;9.12;97.09
5877;BME280;2964;42.144;24.730;2023-11-22T06:21:27;143864.03;;;9.14;96.72
5877;BME280;2964;42.144;24.730;2023-11-22T06:23:55;143860.28;;;9.13;97.38
5877;BME280;2964;42.144;24.730;2023-11-22T06:26:23;143836.47;;;9.03;97.90
5877;BME280;2964;42.144;24.730;2023-11-22T06:28:50;143899.19;;;9.28;97.09
5877;BME280;2964;42.144;24.730;2023-11-22T06:31:16;143880.38;;;9.21;97.74
5877;BME280;2964;42.144;24.730;2023-11-22T06:33:44;143865.28;;;9.15;98.94
5877;BME280;2964;42.144;24.730;2023-11-22T06:36:10;143870.34;;;9.17;98.39
5877;BME280;2964;42.144;24.730;2023-11-22T06:38:39;143866.56;;;9.15;98.23
5877;BME280;2964;42.144;24.730;2023-11-22T06:41:06;143880.38;;;9.21;98.97
5877;BME280;2964;42.144;24.730;2023-11-22T06:43:33;143902.97;;;9.30;98.90
5877;BME280;2964;42.144;24.730;2023-11-22T06:46:00;143795.06;;;8.86;99.96
5877;BME280;2964;42.144;24.730;2023-11-22T06:48:31;143899.19;;;9.28;100.00
5877;BME280;2964;42.144;24.730;2023-11-22T06:50:57;143910.47;;;9.33;100.00
5877;BME280;2964;42.144;24.730;2023-11-22T06:53:24;143938.09;;;9.44;100.00
5877;BME280;2964;42.144;24.730;2023-11-22T06:55:51;143938.09;;;9.44;100.00
5877;BME280;2964;42.144;24.730;2023-11-22T06:58:19;143955.69;;;9.52;100.00
5877;BME280;2964;42.144;24.730;2023-11-22T07:00:46;143998.34;;;9.69;99.88
5877;BME280;2964;42.144;24.730;2023-11-22T07:03:13;144038.50;;;9.85;99.03
5877;BME280;2964;42.144;24.730;2023-11-22T07:05:41;144068.66;;;9.98;98.38
5877;BME280;2964;42.144;24.730;2023-11-22T07:08:07;144069.91;;;9.98;98.15
5877;BME280;2964;42.144;24.730;2023-11-22T07:10:36;144027.19;;;9.81;96.77
5877;BME280;2964;42.144;24.730;2023-11-22T07:13:03;144032.19;;;9.83;96.84
5877;BME280;2964;42.144;24.730;2023-11-22T07:15:31;144113.84;;;10.16;96.17
5877;BME280;2964;42.144;24.730;2023-11-22T07:17:58;144112.56;;;10.16;95.61
5877;BME280;2964;42.144;24.730;2023-11-22T07:20:25;144128.91;;;10.22;96.14
5877;BME280;2964;42.144;24.730;2023-11-22T07:22:52;144133.91;;;10.24;96.86
5877;BME280;2964;42.144;24.730;2023-11-22T07:25:20;144199.31;;;10.51;95.35
5877;BME280;2964;42.144;24.730;2023-11-22T07:27:50;144179.19;;;10.43;95.80
5877;BME280;2964;42.144;24.730;2023-11-22T07:30:19;144189.22;;;10.47;95.41
5877;BME280;2964;42.144;24.730;2023-11-22T07:32:49;144221.91;;;10.60;94.07
5877;BME280;2964;42.144;24.730;2023-11-22T07:35:17;144267.13;;;10.79;92.65
5877;BME280;2964;42.144;24.730;2023-11-22T07:37:45;144226.94;;;10.62;93.58
5877;BME280;2964;42.144;24.730;2023-11-22T07:40:13;144284.69;;;10.86;93.34
5877;BME280;2964;42.144;24.730;2023-11-22T07:42:40;144274.63;;;10.82;93.14
5877;BME280;2964;42.144;24.730;2023-11-22T07:45:08;144260.81;;;10.76;92.86
5877;BME280;2964;42.144;24.730;2023-11-22T07:47:37;144274.63;;;10.82;92.53
5877;BME280;2964;42.144;24.730;2023-11-22T07:50:07;144292.22;;;10.89;90.69
5877;BME280;2964;42.144;24.730;2023-11-22T07:52:34;144329.91;;;11.05;90.45
5877;BME280;2964;42.144;24.730;2023-11-22T07:55:03;144306.06;;;10.95;90.56
5877;BME280;2964;42.144;24.730;2023-11-22T07:57:30;144225.63;;;10.62;91.75
5877;BME280;2964;42.144;24.730;2023-11-22T07:59:57;144176.66;;;10.42;92.76
5877;BME280;2964;42.144;24.730;2023-11-22T08:02:26;144209.34;;;10.55;93.09
5877;BME280;2964;42.144;24.730;2023-11-22T08:04:53;144196.78;;;10.50;94.78
5877;BME280;2964;42.144;24.730;2023-11-22T08:07:22;144264.59;;;10.78;93.83
5877;BME280;2964;42.144;24.730;2023-11-22T08:09:49;144209.34;;;10.55;94.98
5877;BME280;2964;42.144;24.730;2023-11-22T08:12:15;144172.91;;;10.40;95.87
5877;BME280;2964;42.144;24.730;2023-11-22T08:14:44;144269.63;;;10.80;94.49
5877;BME280;2964;42.144;24.730;2023-11-22T08:17:11;144208.03;;;10.55;93.97
5877;BME280;2964;42.144;24.730;2023-11-22T08:19:39;144161.59;;;10.36;94.24
5877;BME280;2964;42.144;24.730;2023-11-22T08:22:06;144214.34;;;10.57;94.82
5877;BME280;2964;42.144;24.730;2023-11-22T08:24:34;144187.97;;;10.47;94.81
5877;BME280;2964;42.144;24.730;2023-11-22T08:27:00;144147.72;;;10.30;95.89
5877;BME280;2964;42.144;24.730;2023-11-22T08:29:28;144196.78;;;10.50;95.51
5877;BME280;2964;42.144;24.730;2023-11-22T08:31:55;144155.31;;;10.33;95.60
5877;BME280;2964;42.144;24.730;2023-11-22T08:34:23;144155.31;;;10.33;95.96
5877;BME280;2964;42.144;24.730;2023-11-22T08:36:50;144149.03;;;10.31;96.68
5877;BME280;2964;42.144;24.730;2023-11-22T08:39:16;144143.97;;;10.29;98.57
5877;BME280;2964;42.144;24.730;2023-11-22T08:41:44;144159.09;;;10.35;100.00
5877;BME280;2964;42.144;24.730;2023-11-22T08:44:12;144159.09;;;10.35;100.00
5877;BME280;2964;42.144;24.730;2023-11-22T08:46:39;144141.47;;;10.28;100.00
5877;BME280;2964;42.144;24.730;2023-11-22T08:49:06;144152.81;;;10.32;100.00
5877;BME280;2964;42.144;24.730;2023-11-22T08:51:32;144110.06;;;10.15;100.00
5877;BME280;2964;42.144;24.730;2023-11-22T08:54:00;144186.72;;;10.46;100.00
5877;BME280;2964;42.144;24.730;2023-11-22T08:56:26;144236.97;;;10.67;100.00
5877;BME280;2964;42.144;24.730;2023-11-22T08:58:54;144231.94;;;10.65;100.00
5877;BME280;2964;42.144;24.730;2023-11-22T09:01:21;144254.56;;;10.74;100.00
5877;BME280;2964;42.144;24.730;2023-11-22T09:03:48;144239.44;;;10.68;100.00
5877;BME280;2964;42.144;24.730;2023-11-22T09:06:15;144274.63;;;10.82;100.00
5877;BME280;2964;42.144;24.730;2023-11-22T09:08:42;144287.22;;;10.87;100.00
5877;BME280;2964;42.144;24.730;2023-11-22T09:11:11;144287.22;;;10.87;100.00
5877;BME280;2964;42.144;24.730;2023-11-22T09:13:38;144353.81;;;11.14;98.23
5877;BME280;2964;42.144;24.730;2023-11-22T09:16:07;144370.13;;;11.21;96.45
5877;BME280;2964;42.144;24.730;2023-11-22T09:18:37;144356.31;;;11.15;96.55
5877;BME280;2964;42.144;24.730;2023-11-22T09:21:03;144331.19;;;11.05;96.17
5877;BME280;2964;42.144;24.730;2023-11-22T09:23:30;144385.25;;;11.27;95.28
5877;BME280;2964;42.144;24.730;2023-11-22T09:25:57;144371.41;;;11.22;95.76
5877;BME280;2964;42.144;24.730;2023-11-22T09:28:26;144345.03;;;11.11;96.57
5877;BME280;2964;42.144;24.730;2023-11-22T09:30:52;144350.03;;;11.13;94.75
5877;BME280;2964;42.144;24.730;2023-11-22T09:33:28;144385.25;;;11.27;93.69
5877;BME280;2964;42.144;24.730;2023-11-22T09:35:54;144385.25;;;11.27;94.82
5877;BME280;2964;42.144;24.730;2023-11-22T09:38:21;144380.22;;;11.25;94.79
5877;BME280;2964;42.144;24.730;2023-11-22T09:40:49;144383.94;;;11.27;94.07
5877;BME280;2964;42.144;24.730;2023-11-22T09:43:18;144387.72;;;11.28;94.97
5877;BME280;2964;42.144;24.730;2023-11-22T09:45:46;144425.47;;;11.44;95.14
5877;BME280;2964;42.144;24.730;2023-11-22T09:48:15;144482.00;;;11.67;94.15
5877;BME280;2964;42.144;24.730;2023-11-22T09:50:50;144522.25;;;11.83;92.66
5877;BME280;2964;42.144;24.730;2023-11-22T09:53:22;144548.69;;;11.94;90.96
5877;BME280;2964;42.144;24.730;2023-11-22T09:55:52;144568.81;;;12.02;90.59
5877;BME280;2964;42.144;24.730;2023-11-22T09:58:19;144533.59;;;11.88;90.48
5877;BME280;2964;42.144;24.730;2023-11-22T10:00:47;144507.16;;;11.77;91.82
5877;BME280;2964;42.144;24.730;2023-11-22T10:03:14;144532.28;;;11.87;92.43
5877;BME280;2964;42.144;24.730;2023-11-22T10:05:43;144544.91;;;11.92;91.95
5877;BME280;2964;42.144;24.730;2023-11-22T10:08:10;144539.91;;;11.90;92.31
5877;BME280;2964;42.144;24.730;2023-11-22T10:10:37;144578.91;;;12.06;93.18
5877;BME280;2964;42.144;24.730;2023-11-22T10:13:05;144588.94;;;12.10;94.28
5877;BME280;2964;42.144;24.730;2023-11-22T10:15:32;144576.38;;;12.05;93.15
5877;BME280;2964;42.144;24.730;2023-11-22T10:17:59;144609.06;;;12.19;93.64
5877;BME280;2964;42.144;24.730;2023-11-22T10:20:37;144659.34;;;12.39;92.42
5877;BME280;2964;42.144;24.730;2023-11-22T10:23:09;144563.78;;;12.00;95.24
5877;BME280;2964;42.144;24.730;2023-11-22T10:25:36;144595.22;;;12.13;94.21
5877;BME280;2964;42.144;24.730;2023-11-22T10:28:03;144619.09;;;12.23;94.64
5877;BME280;2964;42.144;24.730;2023-11-22T10:30:33;144626.66;;;12.26;94.64
5877;BME280;2964;42.144;24.730;2023-11-22T10:33:01;144641.75;;;12.32;94.33
5877;BME280;2964;42.144;24.730;2023-11-22T10:35:29;144737.38;;;12.71;92.92
5877;BME280;2964;42.144;24.730;2023-11-22T10:37:56;144697.13;;;12.54;94.22
5877;BME280;2964;42.144;24.730;2023-11-22T10:40:24;144685.78;;;12.50;94.03
5877;BME280;2964;42.144;24.730;2023-11-22T10:42:51;144714.75;;;12.62;93.71
5877;BME280;2964;42.144;24.730;2023-11-22T10:45:21;144673.19;;;12.45;93.33
5877;BME280;2964;42.144;24.730;2023-11-22T10:47:49;144707.19;;;12.59;94.25
5877;BME280;2964;42.144;24.730;2023-11-22T10:50:19;144697.13;;;12.54;94.10
5877;BME280;2964;42.144;24.730;2023-11-22T10:52:47;144722.25;;;12.65;93.63
5877;BME280;2964;42.144;24.730;2023-11-22T10:55:19;144757.50;;;12.79;91.13
5877;BME280;2964;42.144;24.730;2023-11-22T10:57:51;144758.75;;;12.80;91.46
5877;BME280;2964;42.144;24.730;2023-11-22T11:00:19;144689.56;;;12.51;91.98
5877;BME280;2964;42.144;24.730;2023-11-22T11:02:51;144692.09;;;12.52;93.55
5877;BME280;2964;42.144;24.730;2023-11-22T11:05:21;144634.22;;;12.29;94.40
5877;BME280;2964;42.144;24.730;2023-11-22T11:07:59;144724.78;;;12.66;95.65
5877;BME280;2964;42.144;24.730;2023-11-22T11:10:28;144767.56;;;12.83;95.12
5877;BME280;2964;42.144;24.730;2023-11-22T11:12:57;144758.75;;;12.80;93.15
5877;BME280;2964;42.144;24.730;2023-11-22T11:15:24;144797.78;;;12.96;93.50
5877;BME280;2964;42.144;24.730;2023-11-22T11:17:53;144806.59;;;12.99;92.49
5877;BME280;2964;42.144;24.730;2023-11-22T11:20:22;144835.50;;;13.11;91.98
5877;BME280;2964;42.144;24.730;2023-11-22T11:22:49;144889.69;;;13.33;89.92
5877;BME280;2964;42.144;24.730;2023-11-22T11:25:17;144873.31;;;13.26;90.23
5877;BME280;2964;42.144;24.730;2023-11-22T11:27:45;144883.41;;;13.30;90.14
5877;BME280;2964;42.144;24.730;2023-11-22T11:30:44;144790.22;;;12.92;89.52
5877;BME280;2964;42.144;24.730;2023-11-22T11:33:12;144782.69;;;12.89;90.21
5877;BME280;2964;42.144;24.730;2023-11-22T11:35:42;144821.66;;;13.05;90.06
5877;BME280;2964;42.144;24.730;2023-11-22T11:38:12;144834.28;;;13.10;90.62
5877;BME280;2964;42.144;24.730;2023-11-22T11:40:40;144854.44;;;13.19;90.63
5877;BME280;2964;42.144;24.730;2023-11-22T11:43:07;144850.66;;;13.17;90.02
5877;BME280;2964;42.144;24.730;2023-11-22T11:45:37;144879.56;;;13.29;90.59
5877;BME280;2964;42.144;24.730;2023-11-22T11:48:07;144873.31;;;13.26;89.68
5877;BME280;2964;42.144;24.730;2023-11-22T11:50:34;144873.31;;;13.26;89.01
5877;BME280;2964;42.144;24.730;2023-11-22T11:53:00;144932.50;;;13.50;87.87
5877;BME280;2964;42.144;24.730;2023-11-22T11:55:28;144943.81;;;13.55;87.72
5877;BME280;2964;42.144;24.730;2023-11-22T11:57:54;144918.66;;;13.45;88.53
5877;BME280;2964;42.144;24.730;2023-11-22T12:00:22;144928.72;;;13.49;88.25
5877;BME280;2964;42.144;24.730;2023-11-22T12:02:49;144921.16;;;13.46;89.24
5877;BME280;2964;42.144;24.730;2023-11-22T12:05:19;144938.78;;;13.53;88.95
5877;BME280;2964;42.144;24.730;2023-11-22T12:07:46;144921.16;;;13.46;89.91
5877;BME280;2964;42.144;24.730;2023-11-22T12:10:13;144955.19;;;13.60;89.25
5877;BME280;2964;42.144;24.730;2023-11-22T12:12:43;144901.03;;;13.38;87.95
5877;BME280;2964;42.144;24.730;2023-11-22T12:15:11;144994.19;;;13.76;88.07
5877;BME280;2964;42.144;24.730;2023-11-22T12:17:39;144990.44;;;13.74;88.09
5877;BME280;2964;42.144;24.730;2023-11-22T12:20:10;145008.03;;;13.81;87.23
5877;BME280;2964;42.144;24.730;2023-11-22T12:22:40;144969.03;;;13.65;87.60
5877;BME280;2964;42.144;24.730;2023-11-22T12:25:08;144964.00;;;13.63;88.56
5877;BME280;2964;42.144;24.730;2023-11-22T12:27:39;144977.84;;;13.69;88.68
5877;BME280;2964;42.144;24.730;2023-11-22T12:30:07;144941.31;;;13.54;89.43
5877;BME280;2964;42.144;24.730;2023-11-22T12:32:38;144986.66;;;13.73;88.43
5877;BME280;2964;42.144;24.730;2023-11-22T12:35:06;144947.59;;;13.57;89.89
5877;BME280;2964;42.144;24.730;2023-11-22T12:37:34;144971.50;;;13.66;89.09
5877;BME280;2964;42.144;24.730;2023-11-22T12:40:09;144966.47;;;13.64;89.35
5877;BME280;2964;42.144;24.730;2023-11-22T12:42:47;145019.38;;;13.86;88.98
5877;BME280;2964;42.144;24.730;2023-11-22T12:45:18;145026.97;;;13.89;88.78
5877;BME280;2964;42.144;24.730;2023-11-22T12:47:45;145004.28;;;13.80;88.50
5877;BME280;2964;42.144;24.730;2023-11-22T12:50:31;145030.69;;;13.90;89.18
5877;BME280;2964;42.144;24.730;2023-11-22T12:52:58;145063.47;;;14.04;86.74
5877;BME280;2964;42.144;24.730;2023-11-22T12:55:28;145020.63;;;13.86;88.19
5877;BME280;2964;42.144;24.730;2023-11-22T12:57:58;144991.69;;;13.75;87.52
5877;BME280;2964;42.144;24.730;2023-11-22T13:00:27;145006.78;;;13.81;87.28
5877;BME280;2964;42.144;24.730;2023-11-22T13:02:55;145026.97;;;13.89;87.42
5877;BME280;2964;42.144;24.730;2023-11-22T13:05:21;145026.97;;;13.89;87.02
5877;BME280;2964;42.144;24.730;2023-11-22T13:07:48;145004.28;;;13.80;87.43